Time;durP1;ratioP1;P1;durP2;ratioP2;P2;SDS_P1;SDS_P2;PMS_P1;PMS_P2;Temp;Humidity;BMP_temperature;BMP_pressure;BME280_temperature;BME280_humidity;BME280_pressure;Samples;Min_cycle;Max_cycle;Signal;HPM_P1;HPM_P2
2022/08/27 00:00:14;;;;;;;11.38;8.35;;;21.10;80.20;;;20.09;100.00;95736.44;5004746;28;20041;-65
2022/08/27 00:02:41;;;;;;;11.02;7.45;;;20.90;80.00;;;20.07;100.00;95734.00;4990177;28;20527;-65
2022/08/27 00:05:07;;;;;;;8.48;6.65;;;21.00;79.80;;;20.07;100.00;95726.00;4990922;28;20520;-65
2022/08/27 00:07:33;;;;;;;9.77;6.65;;;21.00;79.30;;;20.06;100.00;95728.94;5019162;28;20033;-65
2022/08/27 00:09:59;;;;;;;7.82;6.53;;;20.90;79.10;;;20.02;100.00;95728.66;4973092;28;20029;-64
2022/08/27 00:12:24;;;;;;;9.57;7.18;;;20.80;79.30;;;19.99;100.00;95729.16;4972542;28;20460;-65
2022/08/27 00:14:50;;;;;;;11.10;6.97;;;20.90;80.00;;;19.96;100.00;95720.88;4999491;28;20029;-65
2022/08/27 00:17:16;;;;;;;8.95;6.22;;;20.80;79.90;;;19.90;100.00;95717.34;4989145;28;20120;-65
2022/08/27 00:19:42;;;;;;;7.95;6.20;;;20.80;79.90;;;19.88;100.00;95720.28;5024193;28;20040;-65
2022/08/27 00:22:08;;;;;;;8.32;6.03;;;20.70;79.30;;;19.83;100.00;95722.09;5006737;28;20060;-65
2022/08/27 00:24:35;;;;;;;10.32;6.25;;;20.60;79.60;;;19.76;100.00;95719.66;5007772;28;20410;-64
2022/08/27 00:27:01;;;;;;;8.93;6.20;;;20.60;80.00;;;19.68;100.00;95724.66;5007382;28;20034;-64
2022/08/27 00:29:27;;;;;;;10.85;6.63;;;20.30;80.20;;;19.63;100.00;95721.94;5003634;28;20087;-65
2022/08/27 00:31:53;;;;;;;10.43;6.32;;;20.40;80.60;;;19.60;100.00;95719.78;4994872;28;20590;-65
2022/08/27 00:34:19;;;;;;;8.40;6.47;;;20.40;80.30;;;19.54;100.00;95708.28;4990503;28;20057;-65
2022/08/27 00:36:44;;;;;;;9.57;6.47;;;20.30;80.60;;;19.51;100.00;95714.91;5002116;28;20793;-65
2022/08/27 00:39:11;;;;;;;9.70;6.68;;;20.30;80.60;;;19.47;100.00;95708.47;4989633;28;20109;-65
2022/08/27 00:41:38;;;;;;;12.43;7.15;;;20.30;80.70;;;19.46;100.00;95712.22;5025101;28;20511;-65
2022/08/27 00:44:04;;;;;;;8.40;6.60;;;20.30;81.10;;;19.43;100.00;95704.69;5001374;28;20117;-65
2022/08/27 00:46:42;;;;;;;9.85;7.57;;;20.30;80.70;;;19.46;100.00;95712.22;4975026;28;20034;-65
2022/08/27 00:49:23;;;;;;;12.15;7.20;;;20.40;80.90;;;19.48;100.00;95715.41;4987441;28;20103;-65
2022/08/27 00:51:57;;;;;;;12.50;8.10;;;20.40;81.30;;;19.45;100.00;95718.56;5036887;28;20030;-66
2022/08/27 00:54:23;;;;;;;12.30;8.10;;;20.30;81.30;;;19.42;100.00;95713.75;4990227;28;20033;-65
2022/08/27 00:56:49;;;;;;;12.95;7.90;;;20.20;81.50;;;19.38;100.00;95715.31;4999475;28;20033;-65
2022/08/27 00:59:15;;;;;;;11.55;7.43;;;20.20;81.60;;;19.36;100.00;95733.44;4991363;28;20069;-65
2022/08/27 01:02:17;;;;;;;12.80;8.45;;;20.10;81.70;;;19.24;100.00;95727.47;5015393;28;20035;-65
2022/08/27 01:04:28;;;;;;;14.90;8.45;;;19.80;82.60;;;19.04;100.00;95720.06;4964914;28;20555;-65
2022/08/27 01:06:54;;;;;;;9.75;8.75;;;19.50;83.50;;;18.90;100.00;95724.97;4994570;28;20409;-65
2022/08/27 01:09:20;;;;;;;13.88;9.38;;;19.40;84.10;;;18.80;100.00;95719.56;5012999;28;20041;-66
2022/08/27 01:11:46;;;;;;;12.73;8.88;;;19.30;84.40;;;18.72;100.00;95730.63;4988513;28;20037;-65
2022/08/27 01:14:12;;;;;;;12.05;8.77;;;19.30;84.70;;;18.65;100.00;95727.34;4997644;28;20065;-65
2022/08/27 01:16:40;;;;;;;12.18;9.10;;;19.30;84.60;;;18.61;100.00;95720.91;5000241;28;20030;-65
2022/08/27 01:19:21;;;;;;;11.38;8.57;;;19.30;84.70;;;18.56;100.00;95723.50;4991461;28;20037;-65
2022/08/27 01:22:21;;;;;;;11.52;9.05;;;19.20;84.80;;;18.51;100.00;95718.09;5031586;28;20512;-65
2022/08/27 01:24:48;;;;;;;11.93;9.07;;;19.10;85.00;;;18.46;100.00;95718.03;5013876;28;20581;-65
2022/08/27 01:27:19;;;;;;;13.93;8.57;;;19.10;85.10;;;18.45;100.00;95724.41;4999373;28;20311;-65
2022/08/27 01:29:45;;;;;;;11.88;9.02;;;19.10;85.00;;;18.42;100.00;95725.72;5017199;28;20025;-65
2022/08/27 01:32:26;;;;;;;15.88;8.52;;;19.10;85.20;;;18.39;100.00;95728.06;5020863;28;20048;-65
2022/08/27 01:34:52;;;;;;;12.98;8.70;;;19.10;85.40;;;18.35;100.00;95728.56;5000592;28;20104;-65
2022/08/27 01:37:19;;;;;;;11.18;8.52;;;19.10;85.40;;;18.41;100.00;95731.28;4972627;28;20128;-65
2022/08/27 01:39:44;;;;;;;11.27;8.73;;;19.30;85.10;;;18.46;100.00;95736.69;5022523;28;20033;-66
2022/08/27 01:42:38;;;;;;;16.60;9.48;;;19.40;84.80;;;18.48;100.00;95731.91;5006131;28;20104;-65
2022/08/27 01:45:24;;;;;;;12.07;8.65;;;19.40;84.60;;;18.48;100.00;95730.03;4984912;28;20030;-65
2022/08/27 01:47:50;;;;;;;14.43;8.88;;;19.40;84.80;;;18.50;100.00;95735.13;5013305;28;20087;-65
2022/08/27 01:50:19;;;;;;;11.30;9.48;;;19.50;84.60;;;18.49;100.00;95725.53;4982310;28;20524;-66
2022/08/27 01:52:45;;;;;;;14.05;9.70;;;19.30;84.60;;;18.47;100.00;95730.28;4955096;28;20088;-65
2022/08/27 01:55:13;;;;;;;11.13;9.48;;;19.30;84.80;;;18.48;100.00;95721.25;4979550;28;20049;-65
2022/08/27 01:57:39;;;;;;;11.82;9.05;;;19.40;84.50;;;18.47;100.00;95724.97;4971399;28;20405;-65
2022/08/27 02:00:09;;;;;;;12.88;9.27;;;19.40;84.50;;;18.48;100.00;95722.06;5018318;28;20045;-66
2022/08/27 02:02:35;;;;;;;13.20;8.70;;;19.40;84.30;;;18.49;100.00;95722.84;5021940;28;20036;-65
2022/08/27 02:05:01;;;;;;;11.07;9.48;;;19.40;84.30;;;18.52;100.00;95725.03;4983512;28;20034;-65
2022/08/27 02:07:27;;;;;;;10.80;9.35;;;19.50;84.00;;;18.53;100.00;95718.66;4989369;28;20033;-65
2022/08/27 02:09:52;;;;;;;13.80;8.68;;;19.50;83.70;;;18.55;100.00;95721.84;4999957;28;20030;-65
2022/08/27 02:12:18;;;;;;;11.07;8.35;;;19.50;83.90;;;18.57;100.00;95722.44;5008316;28;20149;-65
2022/08/27 02:14:44;;;;;;;12.10;8.98;;;19.60;83.90;;;18.61;100.00;95718.22;5005895;28;20033;-65
2022/08/27 02:17:11;;;;;;;10.77;7.95;;;19.60;83.50;;;18.65;100.00;95730.03;4997698;28;20470;-65
2022/08/27 02:19:37;;;;;;;11.52;8.02;;;19.60;83.40;;;18.67;100.00;95727.91;5008398;28;20042;-65
2022/08/27 02:22:03;;;;;;;10.13;8.07;;;19.70;83.50;;;18.71;100.00;95734.34;4998100;28;20066;-65
2022/08/27 02:24:28;;;;;;;10.68;8.10;;;19.70;83.60;;;18.74;100.00;95736.50;5004099;28;20509;-65
2022/08/27 02:26:54;;;;;;;11.02;8.25;;;19.70;83.30;;;18.76;100.00;95726.41;5005251;28;20037;-65
2022/08/27 02:29:21;;;;;;;10.57;7.85;;;19.80;83.20;;;18.77;100.00;95721.88;4984250;28;20163;-65
2022/08/27 02:31:46;;;;;;;11.20;8.27;;;19.70;83.40;;;18.78;100.00;95721.63;5021326;28;20030;-65
2022/08/27 02:34:12;;;;;;;13.55;8.93;;;19.80;83.30;;;18.78;100.00;95724.28;5019701;28;20142;-65
2022/08/27 02:36:38;;;;;;;9.07;7.72;;;19.70;83.50;;;18.78;100.00;95721.63;5013688;28;20042;-65
2022/08/27 02:39:05;;;;;;;9.93;8.10;;;19.80;83.50;;;18.79;100.00;95725.94;5021875;28;20461;-65
2022/08/27 02:41:30;;;;;;;10.80;8.52;;;19.80;83.50;;;18.79;100.00;95717.94;5004663;28;20112;-65
2022/08/27 02:43:56;;;;;;;11.65;8.98;;;19.70;83.50;;;18.79;100.00;95717.13;5006351;28;20110;-65
2022/08/27 02:46:22;;;;;;;11.38;8.70;;;19.70;83.40;;;18.80;100.00;95735.53;5024952;28;20033;-64
2022/08/27 02:48:48;;;;;;;11.57;8.85;;;19.70;83.30;;;18.76;100.00;95729.06;5008708;28;20119;-64
2022/08/27 02:51:14;;;;;;;10.52;8.82;;;19.70;83.40;;;18.76;100.00;95736.25;5023839;28;20048;-64
2022/08/27 02:53:39;;;;;;;15.20;9.90;;;19.70;83.40;;;18.75;100.00;95727.47;4992790;28;20050;-65
2022/08/27 02:56:06;;;;;;;12.20;9.60;;;19.70;83.40;;;18.75;100.00;95727.47;4988064;28;20497;-65
2022/08/27 02:58:32;;;;;;;12.82;9.73;;;19.70;83.40;;;18.76;100.00;95739.72;5023980;28;20042;-65
2022/08/27 03:01:00;;;;;;;13.82;9.90;;;19.70;83.50;;;18.75;100.00;95742.66;5017486;28;20049;-67
2022/08/27 03:03:29;;;;;;;15.30;10.27;;;19.70;83.60;;;18.74;100.00;95744.50;4991672;28;20045;-65
2022/08/27 03:05:57;;;;;;;15.32;10.07;;;19.70;83.70;;;18.74;100.00;95739.19;5009501;28;20390;-65
2022/08/27 03:08:26;;;;;;;13.95;9.55;;;19.70;83.60;;;18.74;100.00;95733.84;5008244;28;20042;-65
2022/08/27 03:10:53;;;;;;;16.25;10.25;;;19.70;83.50;;;18.74;100.00;95731.19;5018053;28;20424;-65
2022/08/27 03:13:19;;;;;;;14.57;10.20;;;19.70;83.50;;;18.72;100.00;95727.97;5004060;28;20458;-65
2022/08/27 03:15:45;;;;;;;13.52;10.68;;;19.70;83.40;;;18.73;100.00;95728.78;4975800;28;20045;-66
2022/08/27 03:18:17;;;;;;;13.18;10.13;;;19.70;83.50;;;18.72;100.00;95733.28;5006900;28;20041;-64
2022/08/27 03:20:48;;;;;;;13.40;9.40;;;19.70;83.40;;;18.73;100.00;95729.56;4985043;28;20590;-67
2022/08/27 03:23:14;;;;;;;16.25;10.38;;;19.70;83.30;;;18.75;100.00;95716.00;4993440;28;20125;-66
2022/08/27 03:25:44;;;;;;;13.27;10.02;;;19.70;83.00;;;18.75;100.00;95716.81;5009796;28;20034;-65
2022/08/27 03:28:10;;;;;;;14.32;10.23;;;19.70;83.20;;;18.75;100.00;95716.81;4988527;28;20504;-65
2022/08/27 03:30:36;;;;;;;12.18;9.63;;;19.80;83.10;;;18.75;100.00;95719.47;5003812;28;20064;-65
2022/08/27 03:33:01;;;;;;;13.35;10.02;;;19.70;83.20;;;18.75;100.00;95722.13;5020475;28;20515;-65
2022/08/27 03:35:27;;;;;;;13.30;10.00;;;19.80;83.00;;;18.74;100.00;95725.84;5004735;28;20064;-65
2022/08/27 03:37:53;;;;;;;13.15;10.38;;;19.70;83.10;;;18.75;100.00;95716.81;4994657;28;20124;-66
2022/08/27 03:40:19;;;;;;;11.90;10.00;;;19.80;82.80;;;18.77;100.00;95730.69;5015941;28;20033;-65
2022/08/27 03:42:45;;;;;;;16.15;10.88;;;19.70;82.70;;;18.76;100.00;95726.41;5019189;28;20480;-67
2022/08/27 03:45:11;;;;;;;13.95;10.90;;;19.80;82.90;;;18.77;100.00;95720.03;5000910;28;20638;-69
2022/08/27 03:47:36;;;;;;;13.77;9.77;;;19.80;82.90;;;18.77;100.00;95719.22;4990505;28;20041;-72
2022/08/27 03:50:04;;;;;;;14.68;10.15;;;19.80;83.00;;;18.78;100.00;95710.16;5010925;28;20041;-66
2022/08/27 03:52:32;;;;;;;15.05;10.35;;;19.80;83.00;;;18.77;100.00;95708.56;5011608;28;20051;-69
2022/08/27 03:54:58;;;;;;;15.55;11.07;;;19.80;83.20;;;18.76;100.00;95713.09;5027141;28;20041;-66
2022/08/27 03:57:23;;;;;;;19.25;9.73;;;19.80;83.10;;;18.75;100.00;95708.00;5024209;28;20048;-66
2022/08/27 03:59:50;;;;;;;12.85;9.90;;;19.80;83.10;;;18.74;100.00;95709.88;5011868;28;20063;-66
2022/08/27 04:02:15;;;;;;;12.23;9.05;;;19.70;83.00;;;18.74;100.00;95709.88;5018073;28;20052;-66
2022/08/27 04:04:41;;;;;;;14.43;9.65;;;19.80;82.80;;;18.73;100.00;95712.78;4985785;28;20405;-66
2022/08/27 04:07:08;;;;;;;12.23;9.25;;;19.80;83.00;;;18.75;100.00;95713.34;5021101;28;20042;-66
2022/08/27 04:09:34;;;;;;;11.35;9.35;;;19.80;82.70;;;18.77;100.00;95713.88;5026441;28;20832;-66
2022/08/27 04:12:00;;;;;;;11.88;8.23;;;19.80;82.60;;;18.78;100.00;95716.31;5009926;28;20030;-66
2022/08/27 04:14:26;;;;;;;10.65;8.60;;;19.80;82.60;;;18.78;100.00;95715.50;5011149;28;20509;-66
2022/08/27 04:16:53;;;;;;;12.68;9.48;;;19.70;82.70;;;18.78;100.00;95721.63;5011270;28;20023;-66
2022/08/27 04:19:18;;;;;;;13.27;10.13;;;19.80;82.70;;;18.75;100.00;95722.13;5022896;28;20034;-66
2022/08/27 04:21:44;;;;;;;13.80;10.23;;;19.70;82.90;;;18.73;100.00;95723.44;5006096;28;20117;-66
2022/08/27 04:24:10;;;;;;;15.43;10.75;;;19.70;82.90;;;18.71;100.00;95728.22;4994001;28;20037;-66
2022/08/27 04:26:39;;;;;;;13.18;10.55;;;19.70;83.00;;;18.69;100.00;95728.47;5019972;28;20033;-66
2022/08/27 04:29:05;;;;;;;16.95;10.60;;;19.70;83.00;;;18.68;100.00;95734.84;4994477;28;20050;-66
2022/08/27 04:31:31;;;;;;;12.57;10.85;;;19.70;83.00;;;18.65;100.00;95730.03;5019763;28;20124;-66
2022/08/27 04:33:56;;;;;;;15.15;10.68;;;19.60;83.00;;;18.60;100.00;95735.25;4980764;28;20061;-65
2022/08/27 04:36:23;;;;;;;13.85;10.82;;;19.60;83.40;;;18.55;100.00;95743.16;5014244;28;20119;-68
2022/08/27 04:38:49;;;;;;;16.40;10.75;;;19.50;83.80;;;18.52;100.00;95733.81;5005489;28;20522;-67
2022/08/27 04:41:18;;;;;;;13.05;10.90;;;19.50;83.70;;;18.52;100.00;95728.50;5030110;28;20120;-67
2022/08/27 04:43:45;;;;;;;15.55;11.30;;;19.60;83.80;;;18.53;100.00;95734.63;5030574;28;20091;-68
2022/08/27 04:46:11;;;;;;;14.90;10.70;;;19.60;83.50;;;18.52;100.00;95731.16;5012972;28;20044;-67
2022/08/27 04:48:36;;;;;;;12.98;10.27;;;19.60;83.50;;;18.53;100.00;95731.97;5025220;28;20109;-67
2022/08/27 04:51:02;;;;;;;13.23;11.30;;;19.60;83.30;;;18.53;100.00;95735.44;5017613;28;20412;-68
2022/08/27 04:53:28;;;;;;;13.30;10.43;;;19.60;83.50;;;18.54;100.00;95741.56;5013277;28;20038;-68
2022/08/27 04:55:55;;;;;;;15.75;10.63;;;19.60;83.50;;;18.53;100.00;95735.44;5006265;28;20506;-67
2022/08/27 04:58:21;;;;;;;15.02;10.85;;;19.60;83.60;;;18.56;100.00;95742.16;4994285;28;20061;-67
2022/08/27 05:00:49;;;;;;;15.52;11.18;;;19.60;83.50;;;18.56;100.00;95736.81;5007073;28;20037;-68
2022/08/27 05:03:18;;;;;;;12.32;9.85;;;19.60;83.50;;;18.59;100.00;95733.66;5030072;28;20029;-68
2022/08/27 05:05:44;;;;;;;14.30;9.93;;;19.70;83.50;;;18.59;100.00;95736.31;5010148;28;20117;-68
2022/08/27 05:08:11;;;;;;;13.07;9.25;;;19.60;83.40;;;18.60;100.00;95736.06;5010339;28;20042;-68
2022/08/27 05:10:45;;;;;;;11.25;9.40;;;19.70;83.40;;;18.61;100.00;95737.69;5017890;28;20126;-68
2022/08/27 05:13:11;;;;;;;12.02;9.73;;;19.70;83.40;;;18.64;100.00;95736.41;5010385;28;20125;-67
2022/08/27 05:15:37;;;;;;;12.93;10.00;;;19.80;83.50;;;18.63;100.00;95730.28;5013330;28;20472;-69
2022/08/27 05:18:03;;;;;;;11.75;9.85;;;19.70;83.60;;;18.64;100.00;95736.41;5028054;28;20520;-67
2022/08/27 05:20:29;;;;;;;11.57;9.32;;;19.80;83.80;;;18.66;100.00;95744.94;5005149;28;20065;-68
2022/08/27 05:22:55;;;;;;;11.85;10.13;;;19.80;83.70;;;18.67;100.00;95730.56;5013105;28;20025;-68
2022/08/27 05:25:22;;;;;;;11.30;9.80;;;19.80;84.00;;;18.67;100.00;95741.22;4999981;28;20049;-66
2022/08/27 05:27:48;;;;;;;13.48;9.23;;;19.80;83.90;;;18.65;100.00;95738.00;5025706;28;20040;-68
2022/08/27 05:30:13;;;;;;;12.20;9.20;;;19.70;83.90;;;18.64;100.00;95747.06;5028236;28;20414;-66
2022/08/27 05:32:39;;;;;;;10.60;9.10;;;19.60;84.10;;;18.59;100.00;95745.13;5029538;28;20477;-68
2022/08/27 05:35:06;;;;;;;12.82;8.85;;;19.60;84.40;;;18.58;100.00;95743.50;5012859;28;20588;-67
2022/08/27 05:37:32;;;;;;;9.90;7.95;;;19.60;84.60;;;18.58;100.00;95743.50;5012672;28;20040;-67
2022/08/27 05:39:59;;;;;;;9.25;7.82;;;19.60;84.60;;;18.59;100.00;95744.31;5010771;28;20508;-66
2022/08/27 05:42:25;;;;;;;12.75;7.85;;;19.60;84.40;;;18.58;100.00;95742.69;5020988;28;20037;-67
2022/08/27 05:44:51;;;;;;;10.00;8.07;;;19.60;84.30;;;18.56;100.00;95744.81;5029140;28;20413;-67
2022/08/27 05:47:17;;;;;;;8.15;7.10;;;19.60;84.50;;;18.56;100.00;95748.28;5017378;28;20034;-67
2022/08/27 05:49:44;;;;;;;8.80;6.93;;;19.60;84.60;;;18.58;100.00;95737.38;5024335;28;20076;-67
2022/08/27 05:52:10;;;;;;;10.52;7.07;;;19.70;84.50;;;18.58;100.00;95740.03;5010720;28;20057;-67
2022/08/27 05:54:36;;;;;;;8.07;6.88;;;19.60;84.10;;;18.57;100.00;95733.91;5025740;28;20397;-67
2022/08/27 05:57:01;;;;;;;9.10;7.28;;;19.70;84.50;;;18.60;100.00;95737.94;4991508;28;20022;-68
2022/08/27 06:02:11;;;;;;;12.40;8.05;;;19.70;84.10;;;18.61;100.00;95747.53;5021997;28;20425;-69
2022/08/27 06:04:37;;;;;;;9.75;7.55;;;19.80;84.70;;;18.61;100.00;95737.69;5009257;28;20038;-67
2022/08/27 06:07:03;;;;;;;8.88;7.93;;;19.70;84.60;;;18.61;100.00;95734.22;5002560;28;20514;-68
2022/08/27 06:09:29;;;;;;;8.05;7.07;;;19.70;84.70;;;18.61;100.00;95744.88;5011995;28;20061;-67
2022/08/27 06:11:56;;;;;;;11.20;7.57;;;19.70;84.70;;;18.59;100.00;95742.44;5015062;28;20045;-67
2022/08/27 06:14:21;;;;;;;10.52;7.90;;;19.70;84.80;;;18.60;100.00;95751.25;4990820;28;20651;-67
2022/08/27 06:16:47;;;;;;;11.15;7.03;;;19.70;84.70;;;18.61;100.00;95742.19;4992391;28;20037;-67
2022/08/27 06:19:13;;;;;;;8.57;7.43;;;19.70;84.90;;;18.63;100.00;95746.25;4976095;28;20528;-67
2022/08/27 06:21:40;;;;;;;7.75;6.95;;;19.80;84.70;;;18.65;100.00;95749.47;4996256;28;20037;-68
2022/08/27 06:24:06;;;;;;;9.80;7.00;;;19.80;84.50;;;18.69;100.00;95743.66;5021904;28;20039;-68
2022/08/27 06:26:32;;;;;;;7.95;7.10;;;19.90;84.30;;;18.67;100.00;95751.88;4998396;28;20036;-67
2022/08/27 06:29:02;;;;;;;9.82;7.05;;;19.80;84.60;;;18.63;100.00;95753.44;5011472;28;20057;-67
2022/08/27 06:31:28;;;;;;;8.80;7.22;;;19.60;84.80;;;18.60;100.00;95757.38;5010644;28;20045;-68
2022/08/27 06:33:58;;;;;;;7.97;7.00;;;19.70;84.90;;;18.61;100.00;95758.19;5024370;28;20061;-67
2022/08/27 06:36:24;;;;;;;8.38;6.82;;;19.70;85.00;;;18.62;100.00;95759.78;4994763;28;20026;-67
2022/08/27 06:38:50;;;;;;;8.80;7.07;;;19.70;84.50;;;18.62;100.00;95755.31;5010750;28;20033;-67
2022/08/27 06:41:19;;;;;;;9.10;6.97;;;19.80;84.60;;;18.63;100.00;95756.09;5007715;28;20030;-67
2022/08/27 06:43:45;;;;;;;8.63;6.93;;;19.70;84.20;;;18.64;100.00;95757.72;4992012;28;20030;-67
2022/08/27 06:46:14;;;;;;;8.52;6.60;;;19.80;84.50;;;18.72;100.00;95757.28;4992007;28;20041;-70
2022/08/27 06:48:40;;;;;;;7.05;6.35;;;20.00;84.30;;;18.77;100.00;95757.31;5002994;28;20121;-69
2022/08/27 06:51:15;;;;;;;7.13;6.10;;;20.10;84.00;;;18.85;100.00;95754.25;4998068;28;20053;-68
2022/08/27 06:53:41;;;;;;;9.93;6.47;;;20.20;83.80;;;18.84;100.00;95757.97;5009695;28;20417;-70
2022/08/27 06:56:08;;;;;;;8.05;6.82;;;20.10;83.70;;;18.87;100.00;95757.47;4992885;28;20117;-70
2022/08/27 06:58:33;;;;;;;7.68;6.78;;;20.10;83.80;;;18.90;100.00;95750.81;5008939;28;20109;-70
2022/08/27 07:00:59;;;;;;;9.48;6.75;;;20.10;83.50;;;18.92;100.00;95749.53;4994807;28;20131;-71
2022/08/27 07:03:25;;;;;;;10.85;6.82;;;20.10;83.40;;;18.92;100.00;95743.38;5023364;28;20045;-70
2022/08/27 07:05:51;;;;;;;11.82;7.03;;;20.10;83.60;;;18.95;100.00;95743.69;4998952;28;20026;-71
2022/08/27 07:08:17;;;;;;;10.27;7.30;;;20.20;83.40;;;18.98;100.00;95747.72;5021657;28;20651;-67
2022/08/27 07:10:42;;;;;;;8.35;7.28;;;20.20;83.30;;;19.00;100.00;95747.44;5012013;28;20034;-67
2022/08/27 07:13:08;;;;;;;9.35;7.20;;;20.20;83.70;;;19.05;100.00;95748.34;5012231;28;20155;-68
2022/08/27 07:15:38;;;;;;;8.52;6.90;;;20.40;83.40;;;19.15;100.00;95752.97;4995755;28;20030;-66
2022/08/27 07:18:04;;;;;;;8.82;6.95;;;20.50;83.00;;;19.19;100.00;95760.19;4997154;28;20034;-68
2022/08/27 07:20:30;;;;;;;8.07;7.05;;;20.60;82.80;;;19.27;100.00;95758.97;5011964;28;20125;-68
2022/08/27 07:22:57;;;;;;;10.23;7.72;;;20.60;82.90;;;19.32;100.00;95758.19;5022536;28;20416;-68
2022/08/27 07:25:23;;;;;;;8.48;7.38;;;20.60;82.80;;;19.33;100.00;95765.16;5021767;28;20113;-67
2022/08/27 07:27:49;;;;;;;8.85;7.57;;;20.60;82.40;;;19.42;100.00;95764.41;5025386;28;20129;-66
2022/08/27 07:30:16;;;;;;;9.02;7.05;;;20.80;82.30;;;19.52;100.00;95759.19;5027550;28;20038;-67
2022/08/27 07:32:44;;;;;;;9.02;8.07;;;21.00;82.10;;;19.61;100.00;95764.09;4972538;28;20034;-69
2022/08/27 07:35:09;;;;;;;11.18;8.68;;;21.10;81.80;;;19.66;100.00;95764.13;5008592;28;20050;-69
2022/08/27 07:37:39;;;;;;;9.13;8.18;;;21.00;81.50;;;19.75;100.00;95765.28;5003485;28;20052;-63
2022/08/27 07:40:11;;;;;;;10.10;8.07;;;21.20;81.00;;;19.86;100.00;95775.78;5027610;28;20099;-63
2022/08/27 07:45:21;;;;;;;9.23;8.30;;;21.70;80.80;;;20.12;100.00;95768.75;5013019;28;20108;-68
2022/08/27 07:47:48;;;;;;;11.18;9.20;;;21.80;80.00;;;20.25;100.00;95774.72;5024284;28;20053;-73
2022/08/27 07:50:14;;;;;;;10.15;8.65;;;22.00;79.30;;;20.34;100.00;95781.97;5026101;28;20505;-70
2022/08/27 07:52:42;;;;;;;11.18;8.88;;;22.00;78.40;;;20.43;100.00;95775.16;5002660;28;20048;-69
2022/08/27 07:55:11;;;;;;;10.45;8.27;;;21.90;77.70;;;20.50;100.00;95785.59;5000755;28;20041;-68
2022/08/27 07:57:37;;;;;;;13.10;8.43;;;22.10;77.30;;;20.57;100.00;95777.34;5023199;28;20795;-68
2022/08/27 08:00:07;;;;;;;9.55;8.60;;;22.10;77.00;;;20.61;100.00;95771.22;5010327;28;20520;-69
2022/08/27 08:02:33;;;;;;;10.93;8.88;;;22.20;76.50;;;20.66;100.00;95773.94;5027406;28;20107;-66
2022/08/27 08:04:59;;;;;;;9.50;7.93;;;22.20;76.90;;;20.79;100.00;95780.66;5019091;28;20038;-66
2022/08/27 08:07:25;;;;;;;10.00;8.48;;;22.50;76.20;;;20.89;100.00;95774.56;5008482;28;20037;-68
2022/08/27 08:09:51;;;;;;;9.50;8.05;;;22.60;75.50;;;20.97;100.00;95782.88;4994508;28;20033;-66
2022/08/27 08:12:16;;;;;;;11.43;8.20;;;22.60;74.80;;;21.01;100.00;95780.47;5007599;28;20034;-66
2022/08/27 08:14:42;;;;;;;11.13;7.60;;;22.60;75.70;;;21.10;100.00;95789.59;5011830;28;20068;-67
2022/08/27 08:17:08;;;;;;;10.45;8.13;;;22.70;74.80;;;21.14;100.00;95790.69;5020236;28;20029;-68
2022/08/27 08:19:34;;;;;;;8.52;7.63;;;22.60;75.60;;;21.21;100.00;95790.44;5004906;28;20088;-68
2022/08/27 08:22:00;;;;;;;13.68;8.52;;;22.70;75.70;;;21.26;100.00;95795.81;4994017;28;20477;-69
2022/08/27 08:24:25;;;;;;;10.63;8.75;;;22.70;75.20;;;21.30;100.00;95795.06;4998460;28;20022;-68
2022/08/27 08:26:51;;;;;;;7.60;6.75;;;22.70;75.20;;;21.34;100.00;95795.31;5026849;28;20444;-66
2022/08/27 08:29:17;;;;;;;7.95;6.90;;;22.90;74.50;;;21.39;100.00;95798.00;5026450;28;20418;-68
2022/08/27 08:31:43;;;;;;;12.32;7.57;;;22.80;71.80;;;21.44;100.00;95802.56;5041974;28;20038;-67
2022/08/27 08:34:09;;;;;;;9.18;7.15;;;23.00;71.70;;;21.47;100.00;95813.53;5005775;28;20115;-63
2022/08/27 08:36:35;;;;;;;9.15;7.47;;;23.00;72.10;;;21.52;100.00;95807.41;5026606;28;20056;-65
2022/08/27 08:39:00;;;;;;;8.77;7.00;;;23.10;72.80;;;21.58;100.00;95811.69;5028164;28;20033;-67
2022/08/27 08:41:52;;;;;;;8.65;6.53;;;23.10;72.60;;;21.61;100.00;95821.88;4995731;28;20030;-66
2022/08/27 08:44:31;;;;;;;10.68;6.97;;;23.20;71.60;;;21.65;100.00;95812.22;5019754;28;20044;-69
2022/08/27 08:47:13;;;;;;;9.88;6.63;;;23.30;72.30;;;21.67;100.00;95815.44;5027357;28;20568;-65
2022/08/27 08:49:50;;;;;;;9.25;6.45;;;23.20;72.10;;;21.77;100.00;95815.47;5025891;28;20057;-67
2022/08/27 08:52:21;;;;;;;9.93;6.53;;;23.40;72.00;;;21.88;100.00;95821.63;5025682;28;20452;-66
2022/08/27 08:54:48;;;;;;;;;;;23.60;70.90;;;21.97;100.00;95820.03;5041383;28;20025;-64
2022/08/27 08:57:21;;;;;;;10.73;6.60;;;23.70;70.00;;;22.09;100.00;95809.06;5027632;28;19920;-68
2022/08/27 09:00:06;;;;;;;7.15;6.05;;;23.90;70.40;;;22.23;100.00;95808.28;5013993;28;20033;-66
2022/08/27 09:02:31;;;;;;;8.23;6.05;;;24.10;69.30;;;22.34;100.00;95819.78;4996328;28;20501;-67
2022/08/27 09:05:00;;;;;;;6.50;5.90;;;24.10;68.80;;;22.42;100.00;95821.94;5026985;28;20087;-67
2022/08/27 09:07:48;;;;;;;7.03;6.00;;;24.20;68.20;;;22.47;100.00;95813.88;5023046;28;20040;-67
2022/08/27 09:10:38;;;;;;;7.53;5.68;;;24.20;69.20;;;22.53;100.00;95820.03;5023067;28;20056;-66
2022/08/27 09:13:05;;;;;;;8.25;5.95;;;24.10;69.40;;;22.49;100.00;95811.72;5007813;28;20469;-66
2022/08/27 09:15:33;;;;;;;6.53;5.68;;;24.00;68.50;;;22.48;100.00;95814.66;5008561;28;20510;-66
2022/08/27 09:18:12;;;;;;;9.00;6.00;;;23.90;69.00;;;22.55;100.00;95810.63;5005496;28;20053;-67
2022/08/27 09:20:38;;;;;;;6.35;5.07;;;24.10;69.50;;;22.64;100.00;95812.78;5021376;28;20087;-65
2022/08/27 09:23:49;;;;;;;7.65;5.72;;;24.40;68.70;;;22.78;99.77;95816.47;4993336;28;20553;-62
2022/08/27 09:26:25;;;;;;;6.13;5.03;;;24.60;67.90;;;22.90;99.83;95807.09;5007828;28;20115;-62
2022/08/27 09:29:15;;;;;;;6.43;5.32;;;24.80;67.70;;;23.02;97.09;95814.81;5027251;28;20033;-63
2022/08/27 09:31:46;;;;;;;8.93;5.50;;;24.90;65.60;;;23.12;99.21;95812.09;5011822;28;20507;-63
2022/08/27 09:34:12;;;;;;;6.85;5.03;;;25.00;65.60;;;23.19;98.06;95812.59;4994644;28;20470;-64
2022/08/27 09:37:06;;;;;;;6.82;4.88;;;25.00;64.50;;;23.28;94.42;95812.81;5023846;28;20038;-64
2022/08/27 09:40:10;;;;;;;5.85;4.80;;;25.10;64.20;;;23.37;94.73;95810.38;5010413;28;20084;-66
2022/08/27 09:42:52;;;;;;;5.80;5.20;;;25.20;64.60;;;23.42;94.00;95813.03;5010549;28;20061;-67
2022/08/27 09:45:24;;;;;;;7.85;5.32;;;25.20;64.60;;;23.51;94.52;95820.19;5010822;28;20033;-67
2022/08/27 09:47:54;;;;;;;4.93;4.38;;;25.30;64.20;;;23.61;94.28;95805.16;5007779;28;20033;-67
2022/08/27 09:50:31;;;;;;;6.13;5.40;;;25.60;63.60;;;23.66;92.14;95808.59;5022683;28;20029;-66
2022/08/27 09:52:58;;;;;;;6.68;4.57;;;25.50;63.40;;;23.76;94.14;95803.19;5010727;28;20029;-67
2022/08/27 09:55:47;;;;;;;6.03;4.85;;;25.70;63.30;;;23.88;90.91;95802.81;4993185;28;20041;-67
2022/08/27 09:58:23;;;;;;;6.47;4.75;;;25.70;62.50;;;23.93;92.35;95800.09;4974559;28;20030;-65
2022/08/27 10:00:58;;;;;;;6.82;5.57;;;25.70;63.70;;;23.97;91.10;95805.69;5009426;28;20033;-67
2022/08/27 10:03:24;;;;;;;11.18;8.55;;;25.60;63.50;;;23.95;92.52;95802.47;5006936;28;20029;-64
2022/08/27 10:05:50;;;;;;;38.03;21.45;;;25.50;63.50;;;23.93;91.43;95796.59;5008799;28;20525;-67
2022/08/27 10:08:47;;;;;;;6.38;5.40;;;25.40;63.80;;;23.89;87.41;95804.41;5005719;28;20493;-67
2022/08/27 10:11:31;;;;;;;29.77;16.52;;;25.20;62.50;;;23.86;89.12;95799.59;5022736;28;20045;-67
2022/08/27 10:14:11;;;;;;;33.63;19.73;;;25.20;63.30;;;23.84;90.50;95799.09;5006589;28;20045;-71
2022/08/27 10:16:58;;;;;;;17.88;7.47;;;25.30;63.90;;;23.87;88.58;95795.84;5024376;28;20118;-74
2022/08/27 10:19:51;;;;;;;14.63;8.32;;;25.40;63.10;;;23.93;88.51;95792.03;5004319;28;20173;-71